Time;durP1;ratioP1;P1;durP2;ratioP2;P2;SDS_P1;SDS_P2;PMS_P1;PMS_P2;Temp;Humidity;BMP_temperature;BMP_pressure;BME280_temperature;BME280_humidity;BME280_pressure;Samples;Min_cycle;Max_cycle;Signal;HPM_P1;HPM_P2
2023/05/24 00:02:05;;;;;;;4.53;2.30;;;;;;;;;;5013494;28;20524;-46
2023/05/24 00:04:31;;;;;;;9.37;3.37;;;;;;;;;;5014117;28;20409;-47
2023/05/24 00:06:57;;;;;;;4.83;2.50;;;;;;;;;;5013876;28;20421;-45
2023/05/24 00:09:23;;;;;;;22.33;2.83;;;;;;;;;;5014297;28;21013;-46
2023/05/24 00:11:49;;;;;;;8.13;2.90;;;;;;;;;;5014306;28;21110;-46
2023/05/24 00:14:15;;;;;;;7.30;2.03;;;;;;;;;;5012339;28;20447;-46
2023/05/24 00:16:41;;;;;;;11.20;3.00;;;;;;;;;;5014000;28;20442;-45
2023/05/24 00:19:09;;;;;;;7.40;2.83;;;;;;;;;;5014086;28;20414;-45
2023/05/24 00:21:36;;;;;;;16.67;4.20;;;;;;;;;;5013764;28;20418;-46
2023/05/24 00:24:02;;;;;;;8.80;2.53;;;;;;;;;;5013978;28;20433;-45
2023/05/24 00:26:28;;;;;;;17.17;3.00;;;;;;;;;;5011748;28;20787;-44
2023/05/24 00:28:54;;;;;;;7.93;2.40;;;;;;;;;;5013006;28;20461;-45
2023/05/24 00:31:20;;;;;;;8.83;2.90;;;;;;;;;;5013031;28;20445;-45
2023/05/24 00:33:46;;;;;;;7.13;2.67;;;;;;;;;;5012949;28;20430;-44
2023/05/24 00:36:12;;;;;;;7.67;2.47;;;;;;;;;;5012671;28;20406;-44
2023/05/24 00:38:38;;;;;;;5.27;2.87;;;;;;;;;;5013124;28;20413;-44
2023/05/24 00:41:04;;;;;;;9.70;2.80;;;;;;;;;;5012943;28;20409;-45
2023/05/24 00:43:29;;;;;;;8.07;2.60;;;;;;;;;;5015411;28;21007;-46
2023/05/24 00:46:16;;;;;;;9.30;4.00;;;;;;;;;;5012661;28;20418;-44
2023/05/24 00:48:42;;;;;;;5.87;2.90;;;;;;;;;;5002244;28;20472;-44
2023/05/24 00:51:08;;;;;;;15.37;2.50;;;;;;;;;;5012904;28;20808;-44
2023/05/24 00:53:35;;;;;;;11.20;2.50;;;;;;;;;;5012660;28;20429;-44
2023/05/24 00:56:02;;;;;;;5.13;2.93;;;;;;;;;;5011390;28;20430;-44
2023/05/24 00:58:29;;;;;;;6.73;2.53;;;;;;;;;;5012044;28;20433;-44
2023/05/24 01:00:58;;;;;;;3.77;2.60;;;;;;;;;;5012258;28;20782;-44
2023/05/24 01:03:28;;;;;;;11.23;2.33;;;;;;;;;;5011952;28;20520;-44
2023/05/24 01:05:55;;;;;;;6.90;2.60;;;;;;;;;;5011930;28;20422;-45
2023/05/24 01:08:31;;;;;;;8.07;2.80;;;;;;;;;;5011323;28;20464;-45
2023/05/24 01:11:20;;;;;;;10.37;3.17;;;;;;;;;;5004543;28;20414;-45
2023/05/24 01:14:07;;;;;;;10.30;3.57;;;;;;;;;;4991221;28;20474;-44
2023/05/24 01:16:39;;;;;;;6.63;3.00;;;;;;;;;;5010754;28;20426;-44
2023/05/24 01:19:16;;;;;;;5.73;2.90;;;;;;;;;;5012265;28;20421;-45
2023/05/24 01:21:55;;;;;;;5.47;2.70;;;;;;;;;;5012276;28;20491;-44
2023/05/24 01:24:41;;;;;;;9.43;3.10;;;;;;;;;;5012086;28;20432;-46
2023/05/24 01:27:07;;;;;;;9.27;3.03;;;;;;;;;;5009262;28;20497;-46
2023/05/24 01:29:37;;;;;;;7.67;3.37;;;;;;;;;;5012195;28;20477;-45
2023/05/24 01:32:03;;;;;;;6.00;3.03;;;;;;;;;;4996744;28;20417;-45
2023/05/24 01:34:29;;;;;;;8.73;3.17;;;;;;;;;;5011994;28;20930;-45
2023/05/24 01:36:55;;;;;;;6.30;2.80;;;;;;;;;;5011964;28;20493;-45
2023/05/24 01:39:22;;;;;;;4.77;2.47;;;;;;;;;;5012080;28;20520;-45
2023/05/24 01:42:07;;;;;;;7.63;3.10;;;;;;;;;;5011978;28;20471;-45
2023/05/24 01:44:38;;;;;;;10.77;3.03;;;;;;;;;;5012115;28;20515;-46
2023/05/24 01:47:11;;;;;;;4.20;3.20;;;;;;;;;;5011745;28;20909;-46
2023/05/24 01:49:41;;;;;;;9.63;3.40;;;;;;;;;;5023104;28;20464;-46
2023/05/24 01:52:10;;;;;;;9.23;3.00;;;;;;;;;;5011955;28;20401;-45
2023/05/24 01:54:38;;;;;;;9.67;4.20;;;;;;;;;;5012052;28;20814;-46
2023/05/24 01:57:06;;;;;;;8.33;3.30;;;;;;;;;;5003979;28;20973;-45
2023/05/24 01:59:32;;;;;;;11.63;3.03;;;;;;;;;;5011294;28;20536;-45
2023/05/24 02:01:59;;;;;;;7.20;3.40;;;;;;;;;;5014683;28;20470;-46
2023/05/24 02:04:26;;;;;;;10.03;3.27;;;;;;;;;;5015818;28;20802;-45
2023/05/24 02:06:52;;;;;;;5.10;2.90;;;;;;;;;;5015646;28;20984;-45
2023/05/24 02:09:18;;;;;;;10.27;2.93;;;;;;;;;;5015739;28;20520;-45
2023/05/24 02:11:44;;;;;;;11.00;3.07;;;;;;;;;;5015721;28;20412;-45
2023/05/24 02:14:10;;;;;;;15.33;3.67;;;;;;;;;;5015599;28;20486;-45
2023/05/24 02:16:41;;;;;;;9.47;3.97;;;;;;;;;;5015578;28;20941;-45
2023/05/24 02:19:07;;;;;;;10.33;6.10;;;;;;;;;;5015656;28;20413;-45
2023/05/24 02:21:33;;;;;;;7.00;3.27;;;;;;;;;;5010855;28;20440;-45
2023/05/24 02:23:59;;;;;;;8.90;3.20;;;;;;;;;;5015459;28;20429;-45
2023/05/24 02:26:25;;;;;;;5.97;2.53;;;;;;;;;;5012244;28;20517;-44
2023/05/24 02:28:51;;;;;;;5.43;2.70;;;;;;;;;;5028879;28;20621;-45
2023/05/24 02:31:17;;;;;;;9.40;3.33;;;;;;;;;;5011033;28;20830;-45
2023/05/24 02:33:43;;;;;;;10.83;3.30;;;;;;;;;;5015251;28;20428;-45
2023/05/24 02:36:09;;;;;;;10.03;3.43;;;;;;;;;;5015199;28;20758;-45
2023/05/24 02:38:36;;;;;;;8.97;3.10;;;;;;;;;;5015232;28;20401;-45
2023/05/24 02:41:02;;;;;;;6.87;3.60;;;;;;;;;;5021077;28;20925;-45
2023/05/24 02:43:28;;;;;;;12.07;3.50;;;;;;;;;;5014996;28;20456;-45
2023/05/24 02:45:54;;;;;;;8.40;2.60;;;;;;;;;;5015027;28;21039;-45
2023/05/24 02:48:20;;;;;;;9.87;3.40;;;;;;;;;;5014474;28;20810;-46
2023/05/24 02:50:46;;;;;;;6.83;4.07;;;;;;;;;;5015121;28;20825;-45
2023/05/24 02:53:12;;;;;;;6.20;3.57;;;;;;;;;;5015000;28;20492;-46
2023/05/24 02:55:38;;;;;;;7.47;3.37;;;;;;;;;;5014879;28;20789;-45
2023/05/24 02:58:05;;;;;;;4.23;2.50;;;;;;;;;;5014804;28;20445;-45
2023/05/24 03:00:31;;;;;;;5.70;2.93;;;;;;;;;;5014806;28;20411;-45
2023/05/24 03:03:01;;;;;;;5.67;2.80;;;;;;;;;;5014834;28;20459;-45
2023/05/24 03:05:27;;;;;;;3.77;2.40;;;;;;;;;;5015214;28;20411;-46
2023/05/24 03:07:53;;;;;;;8.63;3.47;;;;;;;;;;5014556;28;20409;-45
2023/05/24 03:10:19;;;;;;;8.00;3.40;;;;;;;;;;5014501;28;20413;-46
2023/05/24 03:12:45;;;;;;;4.90;2.50;;;;;;;;;;5013073;28;20440;-45
2023/05/24 03:15:11;;;;;;;7.43;3.10;;;;;;;;;;5014715;28;20471;-46
2023/05/24 03:17:37;;;;;;;7.20;3.53;;;;;;;;;;5013690;28;20472;-45
2023/05/24 03:20:04;;;;;;;12.40;5.07;;;;;;;;;;5013691;28;20944;-46
2023/05/24 03:22:30;;;;;;;6.13;2.93;;;;;;;;;;5014368;28;20429;-47
2023/05/24 03:24:57;;;;;;;7.20;3.53;;;;;;;;;;5014461;28;20418;-45
2023/05/24 03:27:23;;;;;;;10.30;3.13;;;;;;;;;;5014197;28;20410;-46
2023/05/24 03:29:49;;;;;;;10.73;3.20;;;;;;;;;;5014321;28;20463;-45
2023/05/24 03:32:14;;;;;;;7.63;3.17;;;;;;;;;;5014368;28;20395;-45
2023/05/24 03:34:40;;;;;;;5.53;3.10;;;;;;;;;;5014474;28;20474;-45
2023/05/24 03:37:06;;;;;;;13.57;4.00;;;;;;;;;;5013981;28;20400;-45
2023/05/24 03:39:32;;;;;;;11.73;2.90;;;;;;;;;;5014024;28;20876;-47
2023/05/24 03:41:58;;;;;;;5.40;3.30;;;;;;;;;;5014008;28;20482;-45
2023/05/24 03:44:25;;;;;;;8.43;3.30;;;;;;;;;;5013778;28;20444;-45
2023/05/24 03:46:51;;;;;;;6.97;2.60;;;;;;;;;;5013786;28;20415;-45
2023/05/24 03:49:17;;;;;;;7.23;3.60;;;;;;;;;;5013703;28;20467;-45
2023/05/24 03:51:43;;;;;;;11.37;3.70;;;;;;;;;;5013471;28;20861;-45
2023/05/24 03:54:09;;;;;;;6.93;3.50;;;;;;;;;;5013812;28;20433;-46
2023/05/24 03:56:35;;;;;;;4.90;3.07;;;;;;;;;;5013507;28;20893;-45
2023/05/24 03:59:02;;;;;;;8.50;3.07;;;;;;;;;;5013725;28;20416;-45
2023/05/24 04:01:30;;;;;;;8.70;3.77;;;;;;;;;;5013660;28;20450;-45
2023/05/24 04:03:56;;;;;;;8.10;3.93;;;;;;;;;;5005593;28;20428;-45
2023/05/24 04:06:27;;;;;;;10.40;3.23;;;;;;;;;;5013548;28;20407;-46
2023/05/24 04:08:54;;;;;;;7.83;4.37;;;;;;;;;;5005100;28;20602;-45
2023/05/24 04:11:21;;;;;;;7.47;3.87;;;;;;;;;;5013546;28;20448;-46
2023/05/24 04:13:47;;;;;;;12.30;3.53;;;;;;;;;;5013363;28;20428;-45
2023/05/24 04:16:13;;;;;;;10.70;4.10;;;;;;;;;;5013649;28;20490;-45
2023/05/24 04:18:39;;;;;;;9.13;4.60;;;;;;;;;;5013014;28;20439;-45
2023/05/24 04:21:05;;;;;;;7.07;3.60;;;;;;;;;;5013165;28;20772;-45
2023/05/24 04:23:31;;;;;;;4.57;3.13;;;;;;;;;;5012390;28;20945;-45
2023/05/24 04:25:57;;;;;;;11.67;3.93;;;;;;;;;;5013133;28;20674;-45
2023/05/24 04:28:25;;;;;;;8.27;3.80;;;;;;;;;;5012850;28;20560;-46
2023/05/24 04:30:51;;;;;;;8.57;3.70;;;;;;;;;;5013184;28;20413;-45
2023/05/24 04:33:17;;;;;;;9.53;4.03;;;;;;;;;;5013020;28;20482;-45
2023/05/24 04:35:43;;;;;;;9.37;3.93;;;;;;;;;;5012935;28;20530;-45
2023/05/24 04:38:11;;;;;;;6.30;3.80;;;;;;;;;;5012927;28;20420;-46
2023/05/24 04:40:37;;;;;;;6.10;3.33;;;;;;;;;;5013178;28;20408;-46
2023/05/24 04:43:05;;;;;;;9.23;3.30;;;;;;;;;;5012816;28;20441;-45
2023/05/24 04:45:32;;;;;;;8.47;3.73;;;;;;;;;;5012982;28;20405;-45
2023/05/24 04:47:58;;;;;;;9.80;4.47;;;;;;;;;;5013326;28;20984;-45
2023/05/24 04:50:24;;;;;;;11.60;3.03;;;;;;;;;;5016800;28;20443;-45
2023/05/24 04:52:50;;;;;;;10.07;4.67;;;;;;;;;;5012688;28;20427;-45
2023/05/24 04:55:16;;;;;;;9.70;4.60;;;;;;;;;;5012818;28;20416;-45
2023/05/24 04:57:42;;;;;;;11.50;4.23;;;;;;;;;;5012432;28;20749;-45
2023/05/24 05:00:09;;;;;;;11.50;4.70;;;;;;;;;;5012706;28;20456;-46
2023/05/24 05:02:35;;;;;;;9.07;4.50;;;;;;;;;;5012423;28;20434;-46
2023/05/24 05:05:01;;;;;;;16.50;4.63;;;;;;;;;;5012602;28;20414;-45
2023/05/24 05:07:27;;;;;;;6.03;3.70;;;;;;;;;;5012369;28;20488;-46
2023/05/24 05:09:53;;;;;;;18.17;4.93;;;;;;;;;;5012300;28;20468;-46
2023/05/24 05:12:19;;;;;;;9.80;4.60;;;;;;;;;;5012421;28;20409;-46
2023/05/24 05:14:45;;;;;;;11.13;4.63;;;;;;;;;;5012325;28;20537;-46
2023/05/24 05:17:12;;;;;;;10.23;5.20;;;;;;;;;;5012307;28;20406;-45
2023/05/24 05:19:38;;;;;;;18.83;4.53;;;;;;;;;;5011786;28;20465;-45
2023/05/24 05:22:04;;;;;;;9.50;5.20;;;;;;;;;;5011937;28;20846;-46
2023/05/24 05:24:30;;;;;;;13.40;4.40;;;;;;;;;;5012140;28;20437;-45
2023/05/24 05:26:56;;;;;;;7.10;4.83;;;;;;;;;;5012178;28;20915;-45
2023/05/24 05:29:22;;;;;;;13.20;5.03;;;;;;;;;;5012151;28;20967;-45
2023/05/24 05:31:48;;;;;;;9.37;4.47;;;;;;;;;;5012225;28;20410;-45
2023/05/24 05:34:14;;;;;;;11.90;4.87;;;;;;;;;;5011915;28;20525;-45
2023/05/24 05:36:41;;;;;;;9.53;3.77;;;;;;;;;;5011211;28;20553;-46
2023/05/24 05:39:08;;;;;;;9.90;5.30;;;;;;;;;;5012109;28;20411;-45
2023/05/24 05:41:36;;;;;;;13.90;5.37;;;;;;;;;;5012046;28;20438;-46
2023/05/24 05:44:01;;;;;;;14.83;4.80;;;;;;;;;;5012000;28;20457;-45
2023/05/24 05:46:27;;;;;;;9.23;5.17;;;;;;;;;;5011839;28;20415;-45
2023/05/24 05:48:53;;;;;;;12.90;4.40;;;;;;;;;;5011791;28;20524;-45
2023/05/24 05:51:19;;;;;;;7.00;4.00;;;;;;;;;;5011483;28;20733;-45
2023/05/24 05:53:45;;;;;;;12.33;5.10;;;;;;;;;;5011200;28;20447;-45
2023/05/24 05:56:11;;;;;;;18.80;4.97;;;;;;;;;;5011718;28;20413;-45
2023/05/24 05:58:37;;;;;;;8.80;5.40;;;;;;;;;;5011799;28;20403;-46
2023/05/24 06:01:04;;;;;;;15.03;5.77;;;;;;;;;;5012009;28;20403;-46
2023/05/24 06:03:29;;;;;;;16.43;5.43;;;;;;;;;;5011744;28;20805;-46
2023/05/24 06:05:55;;;;;;;13.33;5.97;;;;;;;;;;5011625;28;20407;-45
2023/05/24 06:08:21;;;;;;;13.43;5.57;;;;;;;;;;5011812;28;20844;-45
2023/05/24 06:10:47;;;;;;;10.93;4.67;;;;;;;;;;5012148;28;20895;-45
2023/05/24 06:13:13;;;;;;;10.00;6.50;;;;;;;;;;5011698;28;20459;-45
2023/05/24 06:15:39;;;;;;;10.20;4.27;;;;;;;;;;5011617;28;20415;-46
2023/05/24 06:18:05;;;;;;;9.17;5.03;;;;;;;;;;5011649;28;20418;-46
2023/05/24 06:20:31;;;;;;;10.80;5.30;;;;;;;;;;5011733;28;20415;-45
2023/05/24 06:22:57;;;;;;;9.50;4.30;;;;;;;;;;5010870;28;20583;-45
2023/05/24 06:25:26;;;;;;;16.23;5.00;;;;;;;;;;5011278;28;20443;-46
2023/05/24 06:27:52;;;;;;;8.63;4.40;;;;;;;;;;5011484;28;20403;-46
2023/05/24 06:30:18;;;;;;;15.70;5.03;;;;;;;;;;5011498;28;20459;-46
2023/05/24 06:32:44;;;;;;;20.60;5.20;;;;;;;;;;5011474;28;20435;-46
2023/05/24 06:35:10;;;;;;;17.83;6.20;;;;;;;;;;5011519;28;20458;-46
2023/05/24 06:37:37;;;;;;;16.13;5.67;;;;;;;;;;5011400;28;20399;-46
2023/05/24 06:40:05;;;;;;;17.27;5.67;;;;;;;;;;5011115;28;20506;-46
2023/05/24 06:42:31;;;;;;;15.13;4.60;;;;;;;;;;5011156;28;20444;-45
2023/05/24 06:44:57;;;;;;;10.40;4.33;;;;;;;;;;5011406;28;20503;-46
2023/05/24 06:47:23;;;;;;;14.73;4.70;;;;;;;;;;5012766;28;20411;-46
2023/05/24 06:49:49;;;;;;;11.93;5.60;;;;;;;;;;5014864;28;20466;-46
2023/05/24 06:52:15;;;;;;;14.07;5.00;;;;;;;;;;5014628;28;20415;-46
2023/05/24 06:54:41;;;;;;;14.87;5.43;;;;;;;;;;5014972;28;20405;-46
2023/05/24 06:57:08;;;;;;;11.03;4.77;;;;;;;;;;5013449;28;20430;-45
2023/05/24 06:59:34;;;;;;;20.50;4.40;;;;;;;;;;5012682;28;20934;-45
2023/05/24 07:02:00;;;;;;;14.13;5.00;;;;;;;;;;5014866;28;20406;-46
2023/05/24 07:04:27;;;;;;;12.77;4.90;;;;;;;;;;5029160;28;20431;-46
2023/05/24 07:06:53;;;;;;;10.73;4.07;;;;;;;;;;5014546;28;20419;-46
2023/05/24 07:09:19;;;;;;;13.60;4.77;;;;;;;;;;5012044;28;20541;-45
2023/05/24 07:11:45;;;;;;;19.63;5.80;;;;;;;;;;5010012;28;20851;-45
2023/05/24 07:14:11;;;;;;;13.80;4.47;;;;;;;;;;5014356;28;20430;-47
2023/05/24 07:16:37;;;;;;;24.33;4.70;;;;;;;;;;5028834;28;20399;-46
2023/05/24 07:19:03;;;;;;;21.63;5.20;;;;;;;;;;5021388;28;20788;-48
2023/05/24 07:21:29;;;;;;;16.90;6.10;;;;;;;;;;5013303;28;20474;-46
2023/05/24 07:23:55;;;;;;;16.27;5.37;;;;;;;;;;5013098;28;20463;-46
2023/05/24 07:26:22;;;;;;;18.60;4.80;;;;;;;;;;5014019;28;20405;-47
2023/05/24 07:28:48;;;;;;;13.70;4.03;;;;;;;;;;5013770;28;20491;-47
2023/05/24 07:31:15;;;;;;;17.67;4.27;;;;;;;;;;5014173;28;20923;-45
2023/05/24 07:33:41;;;;;;;9.70;3.80;;;;;;;;;;5013830;28;20440;-45
2023/05/24 07:36:07;;;;;;;13.50;4.40;;;;;;;;;;5013706;28;20409;-45
2023/05/24 07:38:33;;;;;;;14.80;4.50;;;;;;;;;;5013851;28;20461;-46
2023/05/24 07:41:00;;;;;;;13.60;4.73;;;;;;;;;;5013077;28;20473;-46
2023/05/24 07:43:26;;;;;;;13.47;5.03;;;;;;;;;;5013696;28;20450;-46
2023/05/24 07:45:52;;;;;;;11.03;4.33;;;;;;;;;;5012966;28;20934;-46
2023/05/24 07:48:19;;;;;;;21.03;5.30;;;;;;;;;;5017727;28;20962;-46
2023/05/24 07:50:47;;;;;;;8.70;3.67;;;;;;;;;;5026699;28;20423;-46
2023/05/24 07:53:14;;;;;;;10.13;5.17;;;;;;;;;;5012881;28;20821;-47
2023/05/24 07:55:40;;;;;;;14.63;5.07;;;;;;;;;;5013837;28;20433;-47
2023/05/24 07:58:06;;;;;;;19.27;4.67;;;;;;;;;;5013269;28;20445;-46
2023/05/24 08:00:33;;;;;;;11.80;4.47;;;;;;;;;;5013518;28;20413;-45
2023/05/24 08:02:59;;;;;;;12.70;5.17;;;;;;;;;;5013664;28;20434;-46
2023/05/24 08:05:25;;;;;;;21.53;4.73;;;;;;;;;;5013798;28;20457;-45
2023/05/24 08:07:52;;;;;;;17.90;4.90;;;;;;;;;;5013949;28;20420;-46
2023/05/24 08:10:18;;;;;;;12.07;4.77;;;;;;;;;;5013152;28;20460;-46
2023/05/24 08:12:44;;;;;;;12.37;4.77;;;;;;;;;;5013520;28;20460;-45
2023/05/24 08:15:11;;;;;;;28.27;6.83;;;;;;;;;;5013290;28;20827;-45
2023/05/24 08:17:40;;;;;;;13.93;4.80;;;;;;;;;;4993709;28;20928;-46
2023/05/24 08:20:12;;;;;;;6.37;4.17;;;;;;;;;;5011637;28;20428;-47
2023/05/24 08:22:38;;;;;;;13.20;4.63;;;;;;;;;;5012946;28;20435;-46
2023/05/24 08:25:05;;;;;;;13.23;4.93;;;;;;;;;;5012985;28;20441;-47
2023/05/24 08:27:31;;;;;;;14.67;4.47;;;;;;;;;;5013294;28;20466;-45
2023/05/24 08:29:57;;;;;;;12.83;4.77;;;;;;;;;;5012060;28;21048;-47
2023/05/24 08:32:23;;;;;;;16.37;5.40;;;;;;;;;;5013099;28;20510;-47
2023/05/24 08:34:49;;;;;;;11.43;4.47;;;;;;;;;;5013111;28;20377;-45
2023/05/24 08:37:19;;;;;;;13.60;4.80;;;;;;;;;;5012940;28;20401;-46
2023/05/24 08:39:45;;;;;;;10.13;4.03;;;;;;;;;;4995051;28;20398;-46
2023/05/24 08:42:11;;;;;;;12.73;4.17;;;;;;;;;;5008028;28;20414;-45
2023/05/24 08:44:40;;;;;;;10.57;4.33;;;;;;;;;;5011585;28;20450;-44
2023/05/24 08:47:07;;;;;;;15.03;4.17;;;;;;;;;;5012986;28;20422;-44
2023/05/24 08:49:36;;;;;;;9.87;3.63;;;;;;;;;;5020364;28;20472;-46
2023/05/24 08:52:02;;;;;;;11.97;3.57;;;;;;;;;;5010562;28;20437;-44
2023/05/24 08:54:28;;;;;;;11.43;4.80;;;;;;;;;;5013295;28;20859;-44
2023/05/24 08:56:55;;;;;;;14.40;4.13;;;;;;;;;;5012689;28;20389;-45
2023/05/24 08:59:22;;;;;;;12.20;4.90;;;;;;;;;;5010544;28;20423;-45
2023/05/24 09:01:52;;;;;;;12.07;4.70;;;;;;;;;;5010487;28;20422;-45
2023/05/24 09:04:19;;;;;;;9.13;3.70;;;;;;;;;;5011725;28;20445;-45
2023/05/24 09:06:46;;;;;;;20.77;5.90;;;;;;;;;;5010723;28;20841;-46
2023/05/24 09:09:13;;;;;;;8.77;4.43;;;;;;;;;;5012815;28;20512;-45
2023/05/24 09:11:41;;;;;;;8.50;3.90;;;;;;;;;;5012824;28;20802;-45
2023/05/24 09:14:07;;;;;;;11.67;4.47;;;;;;;;;;5012617;28;20425;-45
2023/05/24 09:16:33;;;;;;;9.33;3.90;;;;;;;;;;5012235;28;20414;-45
2023/05/24 09:19:00;;;;;;;14.57;4.60;;;;;;;;;;5012214;28;20420;-45
2023/05/24 09:21:26;;;;;;;10.70;3.70;;;;;;;;;;5010316;28;20436;-45
2023/05/24 09:23:53;;;;;;;15.77;4.17;;;;;;;;;;5011316;28;20486;-45
2023/05/24 09:26:20;;;;;;;12.63;4.07;;;;;;;;;;5011159;28;20426;-46
2023/05/24 09:28:46;;;;;;;15.40;4.40;;;;;;;;;;5012751;28;20447;-46
2023/05/24 09:31:12;;;;;;;13.33;3.70;;;;;;;;;;5013021;28;20932;-46
2023/05/24 09:33:39;;;;;;;14.33;4.10;;;;;;;;;;5012083;28;20533;-45
2023/05/24 09:36:05;;;;;;;9.20;3.93;;;;;;;;;;5012051;28;20406;-46
2023/05/24 09:38:32;;;;;;;18.03;4.13;;;;;;;;;;5012484;28;20894;-46
2023/05/24 09:41:05;;;;;;;13.23;4.17;;;;;;;;;;5012962;28;20425;-47
2023/05/24 09:43:31;;;;;;;9.70;3.43;;;;;;;;;;5012430;28;20460;-45
2023/05/24 09:45:59;;;;;;;14.83;4.00;;;;;;;;;;5012314;28;20422;-45
2023/05/24 09:48:25;;;;;;;11.70;3.60;;;;;;;;;;5014826;28;20980;-46
2023/05/24 09:51:04;;;;;;;10.30;3.97;;;;;;;;;;5010867;28;20423;-45
2023/05/24 09:53:34;;;;;;;7.20;3.37;;;;;;;;;;5007015;28;20413;-46
2023/05/24 09:56:00;;;;;;;8.13;3.50;;;;;;;;;;5012041;28;20494;-47
2023/05/24 09:58:32;;;;;;;11.90;4.13;;;;;;;;;;5010441;28;20413;-45
2023/05/24 10:01:13;;;;;;;14.67;3.57;;;;;;;;;;5012106;28;20423;-46
2023/05/24 10:03:51;;;;;;;8.80;3.60;;;;;;;;;;5011979;28;20830;-45
2023/05/24 10:06:17;;;;;;;18.23;4.30;;;;;;;;;;5011820;28;20396;-47
2023/05/24 10:08:43;;;;;;;13.87;3.90;;;;;;;;;;5011931;28;20926;-45
2023/05/24 10:11:09;;;;;;;9.27;3.83;;;;;;;;;;5011771;28;20495;-45
2023/05/24 10:13:35;;;;;;;9.50;3.50;;;;;;;;;;5011886;28;20393;-46
2023/05/24 10:16:04;;;;;;;11.47;4.43;;;;;;;;;;5011629;28;20779;-46
2023/05/24 10:18:31;;;;;;;10.57;4.20;;;;;;;;;;5012125;28;20404;-46
2023/05/24 10:20:57;;;;;;;11.47;4.23;;;;;;;;;;5012110;28;20457;-47
2023/05/24 10:23:24;;;;;;;23.07;3.97;;;;;;;;;;5015235;28;20436;-45
2023/05/24 10:25:55;;;;;;;17.30;3.87;;;;;;;;;;5015698;28;20419;-45
2023/05/24 10:28:22;;;;;;;8.33;3.67;;;;;;;;;;5015723;28;20414;-46
2023/05/24 10:31:02;;;;;;;9.10;4.37;;;;;;;;;;5014075;28;20465;-45
2023/05/24 10:33:29;;;;;;;12.37;3.97;;;;;;;;;;5015664;28;20435;-47
2023/05/24 10:35:56;;;;;;;9.50;3.70;;;;;;;;;;5015563;28;20399;-46
2023/05/24 10:38:23;;;;;;;13.53;3.10;;;;;;;;;;5015875;28;20381;-47
2023/05/24 10:40:49;;;;;;;7.33;3.87;;;;;;;;;;5015851;28;20382;-46
2023/05/24 10:43:16;;;;;;;11.90;3.80;;;;;;;;;;5006202;28;20907;-46
2023/05/24 10:45:47;;;;;;;6.80;3.67;;;;;;;;;;5015871;28;20808;-46
2023/05/24 10:48:13;;;;;;;12.77;3.47;;;;;;;;;;5012034;28;20389;-46
2023/05/24 10:50:42;;;;;;;14.33;3.90;;;;;;;;;;5016021;28;20892;-45
2023/05/24 10:53:19;;;;;;;12.20;4.03;;;;;;;;;;5013629;28;20431;-45
2023/05/24 10:55:54;;;;;;;13.07;3.80;;;;;;;;;;5014393;28;20493;-46
2023/05/24 10:58:22;;;;;;;16.07;4.10;;;;;;;;;;5013842;28;20384;-47
2023/05/24 11:00:50;;;;;;;13.40;3.87;;;;;;;;;;5013100;28;20406;-46
2023/05/24 11:03:22;;;;;;;16.53;4.10;;;;;;;;;;5015098;28;20830;-45
2023/05/24 11:05:48;;;;;;;13.50;5.53;;;;;;;;;;5015115;28;20440;-47
2023/05/24 11:08:15;;;;;;;8.43;3.20;;;;;;;;;;5014933;28;20473;-46
2023/05/24 11:10:41;;;;;;;13.03;3.90;;;;;;;;;;5015577;28;20409;-46
2023/05/24 11:13:07;;;;;;;5.03;3.43;;;;;;;;;;5015237;28;20428;-46
2023/05/24 11:15:34;;;;;;;6.83;3.83;;;;;;;;;;5015014;28;20618;-46
2023/05/24 11:18:11;;;;;;;7.80;2.97;;;;;;;;;;5014647;28;20425;-46
2023/05/24 11:20:37;;;;;;;14.23;3.27;;;;;;;;;;5015061;28;20385;-48
2023/05/24 11:23:05;;;;;;;10.80;4.03;;;;;;;;;;5014797;28;21018;-47
2023/05/24 11:25:32;;;;;;;8.33;3.90;;;;;;;;;;5014900;28;20422;-46
2023/05/24 11:27:58;;;;;;;11.30;4.30;;;;;;;;;;5014741;28;20904;-47
2023/05/24 11:30:25;;;;;;;16.33;4.00;;;;;;;;;;5013546;28;20537;-47
2023/05/24 11:32:51;;;;;;;13.80;4.27;;;;;;;;;;5013215;28;20463;-46
2023/05/24 11:35:18;;;;;;;11.47;4.43;;;;;;;;;;5014197;28;20407;-46
2023/05/24 11:37:44;;;;;;;8.57;3.90;;;;;;;;;;5014338;28;20403;-47
2023/05/24 11:40:10;;;;;;;11.33;3.70;;;;;;;;;;5014854;28;20385;-46
2023/05/24 11:42:38;;;;;;;10.67;4.70;;;;;;;;;;5014530;28;20417;-47
2023/05/24 11:45:05;;;;;;;7.53;3.80;;;;;;;;;;5014665;28;20537;-46
2023/05/24 11:47:34;;;;;;;12.07;3.87;;;;;;;;;;5014152;28;20406;-45
2023/05/24 11:50:00;;;;;;;8.70;3.43;;;;;;;;;;5020238;28;20440;-47
2023/05/24 11:52:26;;;;;;;7.70;2.97;;;;;;;;;;5014689;28;20439;-46
2023/05/24 11:54:53;;;;;;;7.83;3.37;;;;;;;;;;5014604;28;20407;-46
2023/05/24 11:57:23;;;;;;;10.93;3.33;;;;;;;;;;5013999;28;20458;-47
2023/05/24 11:59:49;;;;;;;14.80;3.67;;;;;;;;;;5014267;28;20419;-46
2023/05/24 12:02:16;;;;;;;10.90;4.40;;;;;;;;;;5013173;28;20477;-46
2023/05/24 12:04:42;;;;;;;14.37;3.80;;;;;;;;;;5013884;28;20482;-46
2023/05/24 12:07:11;;;;;;;11.90;4.40;;;;;;;;;;5014121;28;20393;-46
2023/05/24 12:09:37;;;;;;;9.83;3.80;;;;;;;;;;5014368;28;20497;-47
2023/05/24 12:12:03;;;;;;;13.63;4.50;;;;;;;;;;5014152;28;20424;-46
2023/05/24 12:14:30;;;;;;;20.07;3.80;;;;;;;;;;5014198;28;20407;-46
2023/05/24 12:16:56;;;;;;;15.93;4.30;;;;;;;;;;5013958;28;20403;-46
2023/05/24 12:19:24;;;;;;;11.80;4.27;;;;;;;;;;5014330;28;20403;-46
2023/05/24 12:21:54;;;;;;;10.70;3.83;;;;;;;;;;5013602;28;20442;-48
2023/05/24 12:24:22;;;;;;;12.80;4.80;;;;;;;;;;5014797;28;20415;-46
2023/05/24 12:26:48;;;;;;;13.20;3.70;;;;;;;;;;5013856;28;20389;-46
2023/05/24 12:29:14;;;;;;;9.00;3.63;;;;;;;;;;5013759;28;20468;-46
2023/05/24 12:31:41;;;;;;;8.40;3.60;;;;;;;;;;5012077;28;20435;-46
2023/05/24 12:34:17;;;;;;;17.60;3.70;;;;;;;;;;5013062;28;20417;-47
2023/05/24 12:36:44;;;;;;;11.40;4.13;;;;;;;;;;5013314;28;20447;-46
2023/05/24 12:39:19;;;;;;;14.20;4.13;;;;;;;;;;5013782;28;20443;-45
2023/05/24 12:41:49;;;;;;;17.13;4.13;;;;;;;;;;5013584;28;20404;-47
2023/05/24 12:44:15;;;;;;;9.50;3.57;;;;;;;;;;5007830;28;20940;-46
2023/05/24 12:46:41;;;;;;;16.40;4.73;;;;;;;;;;5013285;28;20423;-46
2023/05/24 12:49:07;;;;;;;12.20;5.20;;;;;;;;;;5019253;28;20462;-46
2023/05/24 12:51:33;;;;;;;12.60;4.30;;;;;;;;;;5013342;28;20388;-46
2023/05/24 12:54:03;;;;;;;7.53;3.40;;;;;;;;;;5013518;28;20403;-47
2023/05/24 12:56:29;;;;;;;12.80;4.17;;;;;;;;;;5013160;28;20382;-46
2023/05/24 12:58:55;;;;;;;12.80;4.10;;;;;;;;;;5013351;28;20377;-48
2023/05/24 13:01:21;;;;;;;14.73;4.60;;;;;;;;;;5013452;28;20879;-46
2023/05/24 13:03:47;;;;;;;11.07;4.33;;;;;;;;;;5011462;28;20459;-45
2023/05/24 13:06:13;;;;;;;11.30;3.90;;;;;;;;;;5012821;28;20419;-45
2023/05/24 13:08:39;;;;;;;18.73;4.50;;;;;;;;;;5013151;28;20468;-46
2023/05/24 13:11:05;;;;;;;13.37;4.33;;;;;;;;;;5013380;28;20399;-46
2023/05/24 13:13:31;;;;;;;17.30;4.63;;;;;;;;;;5013048;28;20402;-46
2023/05/24 13:15:57;;;;;;;7.77;3.60;;;;;;;;;;5013019;28;20447;-47
2023/05/24 13:18:25;;;;;;;12.10;4.30;;;;;;;;;;5013019;28;20900;-45
2023/05/24 13:20:51;;;;;;;15.57;5.30;;;;;;;;;;5013100;28;20375;-46
2023/05/24 13:23:17;;;;;;;15.83;4.40;;;;;;;;;;5013175;28;20427;-46
2023/05/24 13:25:43;;;;;;;10.60;3.97;;;;;;;;;;5012708;28;20738;-47
2023/05/24 13:28:09;;;;;;;7.33;4.10;;;;;;;;;;5012403;28;20479;-46
2023/05/24 13:30:36;;;;;;;12.80;4.27;;;;;;;;;;5012604;28;20440;-48
2023/05/24 13:33:02;;;;;;;15.47;4.70;;;;;;;;;;5010339;28;20452;-47
2023/05/24 13:35:30;;;;;;;12.57;4.27;;;;;;;;;;5012846;28;20897;-46
2023/05/24 13:37:56;;;;;;;16.13;4.40;;;;;;;;;;5012700;28;20382;-47
2023/05/24 13:40:23;;;;;;;15.67;4.40;;;;;;;;;;5012663;28;20409;-46
2023/05/24 13:42:49;;;;;;;11.50;3.97;;;;;;;;;;5012547;28;20434;-46
2023/05/24 13:45:15;;;;;;;10.17;4.60;;;;;;;;;;5012626;28;20467;-46
2023/05/24 13:47:41;;;;;;;13.63;4.63;;;;;;;;;;5011127;28;20390;-46
2023/05/24 13:50:08;;;;;;;13.50;4.40;;;;;;;;;;5018437;28;20899;-45
2023/05/24 13:52:34;;;;;;;14.37;4.23;;;;;;;;;;5012362;28;20417;-45
2023/05/24 13:55:03;;;;;;;11.37;4.63;;;;;;;;;;5012344;28;20412;-47
2023/05/24 13:57:29;;;;;;;11.23;4.87;;;;;;;;;;5011461;28;20422;-46
2023/05/24 13:59:55;;;;;;;15.00;4.10;;;;;;;;;;5012700;28;20377;-46
2023/05/24 14:02:21;;;;;;;9.70;4.70;;;;;;;;;;5011522;28;20488;-46
2023/05/24 14:04:47;;;;;;;9.97;4.40;;;;;;;;;;5012163;28;21293;-47
2023/05/24 14:07:14;;;;;;;9.70;4.70;;;;;;;;;;5011419;28;20416;-47
2023/05/24 14:09:40;;;;;;;17.37;4.53;;;;;;;;;;5011736;28;20466;-47
2023/05/24 14:12:07;;;;;;;14.63;4.40;;;;;;;;;;5011576;28;20783;-47
2023/05/24 14:14:33;;;;;;;12.80;4.17;;;;;;;;;;5011932;28;20877;-46
2023/05/24 14:16:59;;;;;;;14.60;4.20;;;;;;;;;;5012198;28;20440;-48
2023/05/24 14:19:25;;;;;;;9.93;3.47;;;;;;;;;;5012259;28;20467;-47
2023/05/24 14:21:51;;;;;;;11.23;4.67;;;;;;;;;;5012448;28;20805;-46
2023/05/24 14:24:17;;;;;;;13.20;4.63;;;;;;;;;;5012227;28;20436;-47
2023/05/24 14:26:44;;;;;;;10.23;4.47;;;;;;;;;;5011931;28;20473;-47
2023/05/24 14:29:10;;;;;;;10.17;3.87;;;;;;;;;;5012244;28;20965;-47
2023/05/24 14:31:41;;;;;;;13.30;4.50;;;;;;;;;;5012141;28;21107;-48
2023/05/24 14:34:11;;;;;;;9.67;4.23;;;;;;;;;;5010380;28;20449;-47
2023/05/24 14:36:37;;;;;;;9.63;4.73;;;;;;;;;;5010802;28;20427;-48